Terminal Aerodrome Forecast
Issued by NWS

Home | Current Version | Previous Version | Text Only | Print | Product List | Glossary On
Versions: 1 2 3 4 5 6 7 8 9 10 11 12 13 14
000
FTAK31 PAJN 312336
TAFAPG
TAF
PAPG 312336Z 0100/0124 14005KT P6SM -RA SCT030 OVC050
      TEMPO 0102/0106 VRB04KT 6SM -RA BR BKN030 OVC050
     FM010600 VRB03KT P6SM -RA BKN025 OVC035
     FM011500 09006KT P6SM -RA BKN015 OVC025
      AMD LTD TO CLD VIS AND WIND 0106/0115=

USA.gov is the U.S. government's official web portal to all federal, state and local government web resources and services.